Sign-in with your pilot id or email, or register

ICAO: LGAV Name / Country: Athen/Eleftherios Venizelos Intl / Greece
Latitude: 37.9364 Longitude: 23.9445
Total Arrivals:
Strict Standards: Non-static method AirportData::getarrflights() should not be called statically, assuming $this from incompatible context in /var/www/customers/vh-7192/web/home/phpvms/core/templates/airport_info.tpl on line 18
1
Total Departures:
Strict Standards: Non-static method AirportData::getdeptflights() should not be called statically, assuming $this from incompatible context in /var/www/customers/vh-7192/web/home/phpvms/core/templates/airport_info.tpl on line 21
1
Latest Arrival: MTA5PM (LHBP-LGAV) Tibor Berces Latest Departure: MTA345 (LGAV-LHBP) Laszlo Bartucz
Metar: LGAV 172320Z 26004KT CAVOK 20/13 Q1014 NOSIG
More info

Charts for LGAV


NOTAM


Warning: file_get_contents(http://api.vateud.net/notams/LGAV.json): failed to open stream: Redirection limit reached, aborting in /var/www/customers/vh-7192/web/home/phpvms/core/common/NOTAMSData.class.php on line 18

Warning: Invalid argument supplied for foreach() in /var/www/customers/vh-7192/web/home/phpvms/core/common/NOTAMSData.class.php on line 22

Athen/Eleftherios Venizelos Intl